createdAt,value
2023-05-14T00:02:45.131Z,10.67
2023-05-14T00:05:49.367Z,10.37
2023-05-14T00:08:54.686Z,11.57
2023-05-14T00:11:57.961Z,10.37
2023-05-14T00:15:02.420Z,11.37
2023-05-14T00:18:07.028Z,11.53
2023-05-14T00:21:10.127Z,11.33
2023-05-14T00:24:13.267Z,12.77
2023-05-14T00:27:16.290Z,11.83
2023-05-14T00:30:20.718Z,12.80
2023-05-14T00:33:24.055Z,12.57
2023-05-14T00:36:26.978Z,12.07
2023-05-14T00:39:29.974Z,12.60
2023-05-14T00:42:33.486Z,11.33
2023-05-14T00:45:37.894Z,12.10
2023-05-14T00:48:41.956Z,11.03
2023-05-14T00:51:47.020Z,12.53
2023-05-14T00:54:50.664Z,12.97
2023-05-14T00:57:55.714Z,11.77
2023-05-14T01:01:00.141Z,10.80
2023-05-14T01:04:03.788Z,12.00
2023-05-14T01:07:18.379Z,11.10
2023-05-14T01:10:30.372Z,10.70
2023-05-14T01:13:43.151Z,10.97
2023-05-14T01:16:49.455Z,11.00
2023-05-14T01:19:53.002Z,10.33
2023-05-14T01:22:57.735Z,10.57
2023-05-14T01:26:01.018Z,9.97
2023-05-14T01:29:13.213Z,9.73
2023-05-14T01:32:18.882Z,11.73
2023-05-14T01:35:27.244Z,8.73
2023-05-14T01:38:33.928Z,8.43
2023-05-14T01:41:39.309Z,9.27
2023-05-14T01:44:42.782Z,9.03
2023-05-14T01:47:45.818Z,8.13
2023-05-14T01:50:49.488Z,9.70
2023-05-14T01:53:54.062Z,9.30
2023-05-14T01:56:57.240Z,9.40
2023-05-14T02:00:00.510Z,9.03
2023-05-14T02:03:08.069Z,8.07
2023-05-14T02:06:11.179Z,8.97
2023-05-14T02:09:15.652Z,8.17
2023-05-14T02:12:18.904Z,9.53
2023-05-14T02:15:22.215Z,9.87
2023-05-14T02:18:25.343Z,10.17
2023-05-14T02:21:28.387Z,9.17
2023-05-14T02:24:32.620Z,9.40
2023-05-14T02:27:35.650Z,8.87
2023-05-14T02:30:38.732Z,8.90
2023-05-14T02:33:42.075Z,9.40
2023-05-14T02:36:45.155Z,8.83
2023-05-14T02:39:49.859Z,8.60
2023-05-14T02:42:52.851Z,8.27
2023-05-14T02:45:56.109Z,7.03
2023-05-14T02:49:02.934Z,7.57
2023-05-14T02:52:06.568Z,8.00
2023-05-14T02:55:12.089Z,8.87
2023-05-14T02:58:15.422Z,9.03
2023-05-14T03:01:19.097Z,8.33
2023-05-14T03:04:22.765Z,8.57
2023-05-14T03:07:25.798Z,8.97
2023-05-14T03:10:30.107Z,7.27
2023-05-14T03:13:33.108Z,8.40
2023-05-14T03:16:36.236Z,8.83
2023-05-14T03:19:39.348Z,8.17
2023-05-14T03:22:43.853Z,8.60
2023-05-14T03:25:48.542Z,8.07
2023-05-14T03:28:52.006Z,8.90
2023-05-14T03:31:55.401Z,8.07
2023-05-14T03:34:58.498Z,8.87
2023-05-14T03:38:01.535Z,7.93
2023-05-14T03:41:05.973Z,7.87
2023-05-14T03:44:08.931Z,8.60
2023-05-14T03:47:11.951Z,7.63
2023-05-14T03:50:15.362Z,9.67
2023-05-14T03:53:18.297Z,9.30
2023-05-14T03:56:23.605Z,8.43
2023-05-14T03:59:26.621Z,9.00
2023-05-14T04:02:30.639Z,9.67
2023-05-14T04:05:33.857Z,8.53
2023-05-14T04:08:36.933Z,10.20
2023-05-14T04:11:41.239Z,9.50
2023-05-14T04:14:44.299Z,9.87
2023-05-14T04:17:47.525Z,9.60
2023-05-14T04:20:50.626Z,11.10
2023-05-14T04:23:54.267Z,10.53
2023-05-14T04:27:00.531Z,10.07
2023-05-14T04:30:03.896Z,10.70
2023-05-14T04:33:07.312Z,10.47
2023-05-14T04:36:10.666Z,9.03
2023-05-14T04:39:13.812Z,10.57
2023-05-14T04:42:18.064Z,9.27
2023-05-14T04:45:21.233Z,10.57
2023-05-14T04:48:24.198Z,9.83
2023-05-14T04:51:27.655Z,10.33
2023-05-14T04:54:30.873Z,9.83
2023-05-14T04:57:35.362Z,9.47
2023-05-14T05:00:38.317Z,8.47
2023-05-14T05:03:41.342Z,8.40
2023-05-14T05:06:44.297Z,8.23
2023-05-14T05:09:47.278Z,7.63
2023-05-14T05:12:51.664Z,7.43
2023-05-14T05:15:55.454Z,8.00
2023-05-14T05:18:58.524Z,8.73
2023-05-14T05:22:01.603Z,7.93
2023-05-14T05:25:06.239Z,8.53
2023-05-14T05:28:10.639Z,8.20
2023-05-14T05:31:14.140Z,7.53
2023-05-14T05:34:17.232Z,8.53
2023-05-14T05:37:20.254Z,9.57
2023-05-14T05:40:23.489Z,7.80
2023-05-14T05:43:28.501Z,8.30
2023-05-14T05:46:31.856Z,8.67
2023-05-14T05:49:36.819Z,8.67
2023-05-14T05:52:40.521Z,10.07
2023-05-14T05:55:43.737Z,8.57
2023-05-14T05:58:48.046Z,8.37
2023-05-14T06:01:51.137Z,9.13
2023-05-14T06:04:54.103Z,7.87
2023-05-14T06:07:57.798Z,8.57
2023-05-14T06:11:01.158Z,7.87
2023-05-14T06:14:05.561Z,9.03
2023-05-14T06:17:11.686Z,9.23
2023-05-14T06:20:14.885Z,8.10
2023-05-14T06:23:17.845Z,9.23
2023-05-14T06:26:21.001Z,9.27
2023-05-14T06:29:26.694Z,9.03
2023-05-14T06:32:29.766Z,8.27
2023-05-14T06:35:34.688Z,8.67
2023-05-14T06:38:38.213Z,8.30
2023-05-14T06:41:41.405Z,8.50
2023-05-14T06:44:51.631Z,7.70
2023-05-14T06:47:54.788Z,7.27
2023-05-14T06:50:58.398Z,7.27
2023-05-14T06:54:01.382Z,6.90
2023-05-14T06:57:04.957Z,7.37
2023-05-14T07:00:11.189Z,7.60
2023-05-14T07:03:14.125Z,7.10
2023-05-14T07:06:17.428Z,6.87
2023-05-14T07:09:20.799Z,7.03
2023-05-14T07:12:23.793Z,6.80
2023-05-14T07:15:28.397Z,7.00
2023-05-14T07:18:37.653Z,7.60
2023-05-14T07:21:50.274Z,7.13
2023-05-14T07:24:59.393Z,7.00
2023-05-14T07:28:08.002Z,6.10
2023-05-14T07:31:19.202Z,6.90
2023-05-14T07:34:22.835Z,6.35
2023-05-14T07:37:28.626Z,6.32
2023-05-14T07:40:32.123Z,6.50
2023-05-14T07:43:35.132Z,5.20
2023-05-14T07:46:39.842Z,5.97
2023-05-14T07:49:42.905Z,6.47
2023-05-14T07:52:45.918Z,6.25
2023-05-14T07:55:50.433Z,6.20
2023-05-14T07:58:53.626Z,6.40
2023-05-14T08:01:58.194Z,6.75
2023-05-14T08:05:01.462Z,7.05
2023-05-14T08:08:04.874Z,5.72
2023-05-14T08:11:08.022Z,5.22
2023-05-14T08:14:11.205Z,5.32
2023-05-14T08:17:16.543Z,5.43
2023-05-14T08:20:20.165Z,5.53
2023-05-14T08:23:23.691Z,4.95
2023-05-14T08:26:26.751Z,5.13
2023-05-14T08:29:29.746Z,5.50
2023-05-14T08:32:34.145Z,5.63
2023-05-14T08:35:37.215Z,5.10
2023-05-14T08:38:40.727Z,4.70
2023-05-14T08:41:44.495Z,4.80
2023-05-14T08:44:51.050Z,5.05
2023-05-14T08:47:58.214Z,5.05
2023-05-14T08:51:02.791Z,4.78
2023-05-14T08:54:07.669Z,4.82
2023-05-14T08:57:11.388Z,4.95
2023-05-14T09:00:16.070Z,4.50
2023-05-14T09:03:21.438Z,4.55
2023-05-14T09:06:26.568Z,4.90
2023-05-14T09:09:30.106Z,4.43
2023-05-14T09:12:33.048Z,4.27
2023-05-14T09:15:36.813Z,4.88
2023-05-14T09:18:45.066Z,5.07
2023-05-14T09:21:50.785Z,5.10
2023-05-14T09:25:06.474Z,5.45
2023-05-14T09:28:10.539Z,4.15
2023-05-14T09:31:14.339Z,5.00
2023-05-14T09:34:37.839Z,4.90
2023-05-14T09:37:43.826Z,4.32
2023-05-14T09:40:47.744Z,4.70
2023-05-14T09:43:51.417Z,4.75
2023-05-14T09:46:55.008Z,4.45
2023-05-14T09:49:59.377Z,4.15
2023-05-14T09:53:02.945Z,4.72
2023-05-14T09:56:06.852Z,4.28
2023-05-14T09:59:10.034Z,5.05
2023-05-14T10:02:25.341Z,4.57
2023-05-14T10:05:30.593Z,3.80
2023-05-14T10:08:36.532Z,4.70
2023-05-14T10:11:45.021Z,4.90
2023-05-14T10:14:53.319Z,4.40
2023-05-14T10:18:00.382Z,4.22
2023-05-14T10:21:07.640Z,5.22
2023-05-14T10:24:11.025Z,4.18
2023-05-14T10:27:15.210Z,4.47
2023-05-14T10:30:23.825Z,4.18
2023-05-14T10:33:27.995Z,5.32
2023-05-14T10:36:32.447Z,5.00
2023-05-14T10:39:44.205Z,4.70
2023-05-14T10:42:47.992Z,4.22
2023-05-14T10:45:51.058Z,4.53
2023-05-14T10:48:56.921Z,4.15
2023-05-14T10:52:02.947Z,4.95
2023-05-14T10:55:08.150Z,5.38
2023-05-14T10:58:11.785Z,5.30
2023-05-14T11:01:15.130Z,4.57
2023-05-14T11:04:19.973Z,5.65
2023-05-14T11:07:28.884Z,5.00
2023-05-14T11:10:32.518Z,4.47
2023-05-14T11:13:35.567Z,5.40
2023-05-14T11:16:39.081Z,12.35
2023-05-14T11:19:44.922Z,4.55
2023-05-14T11:22:51.673Z,5.40
2023-05-14T11:25:56.281Z,5.32
2023-05-14T11:28:59.284Z,4.65
2023-05-14T11:32:03.901Z,4.85
2023-05-14T11:35:08.032Z,5.18
2023-05-14T11:38:17.136Z,4.82
2023-05-14T11:41:21.560Z,5.22
2023-05-14T11:44:24.877Z,5.13
2023-05-14T11:47:28.089Z,4.63
2023-05-14T11:50:55.860Z,4.95
2023-05-14T11:54:05.785Z,4.75
2023-05-14T11:57:11.799Z,5.10
2023-05-14T12:00:22.243Z,5.00
2023-05-14T12:03:26.863Z,5.05
2023-05-14T12:06:33.120Z,6.00
2023-05-14T12:09:43.027Z,4.93
2023-05-14T12:12:49.834Z,5.05
2023-05-14T12:15:57.008Z,4.30
2023-05-14T12:19:02.375Z,5.50
2023-05-14T12:22:06.288Z,5.10
2023-05-14T12:25:23.093Z,5.07
2023-05-14T12:28:26.265Z,5.20
2023-05-14T12:31:30.572Z,5.32
2023-05-14T12:34:35.869Z,4.70
2023-05-14T12:37:57.258Z,4.57
2023-05-14T12:41:01.795Z,4.63
2023-05-14T12:44:07.493Z,4.47
2023-05-14T12:47:13.349Z,5.63
2023-05-14T12:50:16.669Z,5.80
2023-05-14T12:53:22.967Z,5.03
2023-05-14T12:56:28.481Z,3.88
2023-05-14T12:59:31.588Z,4.15
2023-05-14T13:02:42.610Z,4.50
2023-05-14T13:05:49.538Z,4.15
2023-05-14T13:08:53.469Z,4.35
2023-05-14T13:12:01.215Z,4.63
2023-05-14T13:27:22.830Z,4.50
2023-05-14T13:30:32.290Z,4.78
2023-05-14T13:33:46.526Z,4.28
2023-05-14T13:36:51.688Z,5.13
2023-05-14T13:39:57.417Z,4.28
2023-05-14T13:43:03.273Z,5.07
2023-05-14T13:46:08.952Z,5.20
2023-05-14T13:49:17.340Z,5.10
2023-05-14T13:52:23.985Z,4.45
2023-05-14T13:55:27.733Z,5.38
2023-05-14T13:58:35.047Z,4.80
2023-05-14T14:01:42.811Z,5.22
2023-05-14T14:04:49.026Z,4.47
2023-05-14T14:08:21.921Z,5.15
2023-05-14T14:11:35.032Z,4.85
2023-05-14T14:14:46.159Z,4.60
2023-05-14T14:17:53.789Z,4.35
2023-05-14T14:20:57.088Z,4.53
2023-05-14T14:24:00.233Z,4.43
2023-05-14T14:27:03.513Z,4.05
2023-05-14T14:30:17.313Z,4.50
2023-05-14T14:33:48.838Z,4.15
2023-05-14T14:37:02.053Z,3.80
2023-05-14T14:40:10.586Z,4.68
2023-05-14T14:43:13.688Z,4.40
2023-05-14T14:46:16.867Z,4.40
2023-05-14T14:49:21.275Z,3.90
2023-05-14T14:52:24.900Z,3.75
2023-05-14T14:55:28.000Z,4.53
2023-05-14T14:58:31.360Z,4.60
2023-05-14T15:01:34.959Z,4.20
2023-05-14T15:04:39.585Z,3.90
2023-05-14T15:07:42.730Z,4.80
2023-05-14T15:15:55.109Z,3.90
2023-05-14T15:18:58.413Z,3.90
2023-05-14T15:22:04.547Z,5.22
2023-05-14T15:25:30.598Z,4.90
2023-05-14T15:28:40.703Z,5.18
2023-05-14T15:31:48.279Z,4.88
2023-05-14T15:35:03.218Z,5.68
2023-05-14T15:38:08.301Z,5.10
2023-05-14T15:41:25.221Z,4.32
2023-05-14T15:45:15.031Z,4.63
2023-05-14T15:48:47.791Z,16.38
2023-05-14T15:51:50.944Z,6.13
2023-05-14T15:54:57.306Z,5.35
2023-05-14T15:58:00.670Z,5.38
2023-05-14T16:01:41.781Z,3.88
2023-05-14T16:04:45.986Z,4.57
2023-05-14T16:07:51.480Z,5.00
2023-05-14T16:15:13.167Z,5.57
2023-05-14T16:19:40.339Z,5.32
2023-05-14T16:22:54.155Z,4.45
2023-05-14T16:25:58.944Z,4.93
2023-05-14T16:29:02.003Z,4.97
2023-05-14T16:32:08.372Z,4.93
2023-05-14T16:35:29.442Z,4.93
2023-05-14T16:38:44.611Z,4.70
2023-05-14T16:41:57.179Z,4.82
2023-05-14T16:45:00.397Z,5.03
2023-05-14T16:48:05.534Z,4.63
2023-05-14T16:51:09.688Z,4.97
2023-05-14T16:54:12.797Z,4.90
2023-05-14T16:57:17.205Z,5.05
2023-05-14T17:00:26.641Z,5.05
2023-05-14T17:03:33.335Z,5.50
2023-05-14T17:06:36.779Z,5.45
2023-05-14T17:09:40.178Z,5.22
2023-05-14T17:12:44.786Z,5.57
2023-05-14T17:15:48.016Z,5.35
2023-05-14T17:18:51.262Z,5.32
2023-05-14T17:21:57.422Z,6.10
2023-05-14T17:25:00.704Z,5.72
2023-05-14T17:28:05.584Z,5.38
2023-05-14T17:31:08.905Z,6.10
2023-05-14T17:34:22.345Z,5.40
2023-05-14T17:38:31.446Z,6.28
2023-05-14T17:41:45.836Z,5.70
2023-05-14T17:45:13.654Z,4.88
2023-05-14T17:52:35.854Z,6.55
2023-05-14T17:56:14.813Z,5.68
2023-05-14T18:05:51.671Z,5.68
2023-05-14T18:10:34.359Z,5.80
2023-05-14T18:19:25.589Z,9.00
2023-05-14T18:25:46.637Z,6.70
2023-05-14T18:28:50.153Z,6.28
2023-05-14T18:31:53.172Z,6.28
2023-05-14T18:41:01.969Z,6.88
2023-05-14T18:44:05.395Z,7.13
2023-05-14T18:47:08.950Z,6.82
2023-05-14T18:50:12.457Z,7.45
2023-05-14T18:53:15.596Z,8.02
2023-05-14T18:57:21.247Z,8.23
2023-05-14T19:00:25.204Z,8.40
2023-05-14T19:03:30.874Z,9.15
2023-05-14T19:07:01.131Z,9.68
2023-05-14T19:10:05.396Z,8.95
2023-05-14T19:13:12.576Z,9.20
2023-05-14T19:16:15.830Z,9.88
2023-05-14T19:19:19.208Z,9.68
2023-05-14T19:22:22.390Z,10.93
2023-05-14T19:25:35.055Z,11.30
2023-05-14T19:28:44.864Z,10.40
2023-05-14T19:31:48.234Z,9.63
2023-05-14T19:34:51.688Z,8.82
2023-05-14T19:37:54.948Z,10.67
2023-05-14T19:41:00.232Z,9.23
2023-05-14T19:44:04.636Z,8.40
2023-05-14T19:47:08.436Z,10.43
2023-05-14T19:50:12.036Z,9.27
2023-05-14T19:53:15.632Z,8.97
2023-05-14T19:56:21.472Z,10.53
2023-05-14T19:59:26.300Z,9.00
2023-05-14T20:02:29.497Z,8.97
2023-05-14T20:05:34.371Z,9.17
2023-05-14T20:08:37.785Z,13.00
2023-05-14T20:11:40.828Z,9.63
2023-05-14T20:14:45.226Z,10.50
2023-05-14T20:17:48.328Z,11.13
2023-05-14T20:20:51.849Z,10.23
2023-05-14T20:23:55.721Z,11.80
2023-05-14T20:26:58.780Z,11.23
2023-05-14T20:30:05.424Z,10.73
2023-05-14T20:33:08.800Z,10.17
2023-05-14T20:36:11.840Z,10.67
2023-05-14T20:39:16.200Z,10.83
2023-05-14T20:42:19.430Z,9.93
2023-05-14T20:45:23.966Z,11.23
2023-05-14T20:48:27.604Z,15.97
2023-05-14T20:51:30.575Z,26.60
2023-05-14T20:54:33.647Z,36.53
2023-05-14T20:57:40.584Z,38.90
2023-05-14T21:00:49.026Z,34.73
2023-05-14T21:03:52.351Z,26.23
2023-05-14T21:06:55.939Z,24.20
2023-05-14T21:09:59.275Z,21.17
2023-05-14T21:13:02.260Z,19.27
2023-05-14T21:16:07.987Z,18.93
2023-05-14T21:19:12.049Z,17.20
2023-05-14T21:22:16.718Z,17.53
2023-05-14T21:25:19.920Z,15.93
2023-05-14T21:28:23.207Z,18.13
2023-05-14T21:31:27.777Z,16.80
2023-05-14T21:34:32.008Z,18.30
2023-05-14T21:37:35.154Z,16.60
2023-05-14T21:40:38.255Z,18.83
2023-05-14T21:43:41.424Z,17.40
2023-05-14T21:46:47.244Z,15.13
2023-05-14T21:49:50.313Z,13.57
2023-05-14T21:52:53.452Z,12.57
2023-05-14T21:55:56.716Z,14.57
2023-05-14T21:58:59.719Z,13.17
2023-05-14T22:02:07.446Z,12.17
2023-05-14T22:05:11.163Z,12.67
2023-05-14T22:08:14.335Z,12.70
2023-05-14T22:11:17.396Z,13.03
2023-05-14T22:14:20.397Z,13.13
2023-05-14T22:17:24.791Z,12.30
2023-05-14T22:20:28.117Z,13.57
2023-05-14T22:23:31.432Z,13.30
2023-05-14T22:26:34.569Z,15.73
2023-05-14T22:29:38.357Z,17.80
2023-05-14T22:32:43.346Z,15.27
2023-05-14T22:35:46.648Z,15.50
2023-05-14T22:38:49.640Z,14.47
2023-05-14T22:41:55.108Z,14.00
2023-05-14T22:44:58.600Z,14.00
2023-05-14T22:48:03.075Z,13.53
2023-05-14T22:51:08.236Z,13.87
2023-05-14T22:54:11.965Z,13.50
2023-05-14T22:57:15.037Z,14.03
2023-05-14T23:00:21.299Z,13.87
2023-05-14T23:03:25.794Z,12.27
2023-05-14T23:06:28.808Z,12.33
2023-05-14T23:09:31.706Z,13.67
2023-05-14T23:12:34.877Z,12.80
2023-05-14T23:15:38.772Z,12.60
2023-05-14T23:18:44.054Z,12.90
2023-05-14T23:21:47.274Z,12.50
2023-05-14T23:24:50.315Z,13.30
2023-05-14T23:27:53.340Z,14.80
2023-05-14T23:30:58.632Z,13.67
2023-05-14T23:34:03.088Z,15.13
2023-05-14T23:37:06.865Z,13.43
2023-05-14T23:40:11.300Z,13.37
2023-05-14T23:43:15.003Z,13.17
2023-05-14T23:46:18.324Z,15.30
2023-05-14T23:49:22.763Z,14.63
2023-05-14T23:52:25.964Z,14.37
2023-05-14T23:55:28.917Z,15.67
2023-05-14T23:58:32.941Z,13.83
